createdAt,value
2019-03-15T00:01:12.148Z,7.41
2019-03-15T00:03:38.866Z,7.42
2019-03-15T00:06:05.912Z,7.38
2019-03-15T00:08:32.660Z,7.39
2019-03-15T00:10:59.390Z,7.47
2019-03-15T00:13:26.128Z,7.45
2019-03-15T00:15:52.858Z,7.39
2019-03-15T00:18:19.586Z,7.42
2019-03-15T00:20:46.306Z,7.46
2019-03-15T00:23:13.024Z,7.37
2019-03-15T00:25:43.034Z,7.31
2019-03-15T00:28:09.758Z,7.40
2019-03-15T00:30:36.430Z,7.40
2019-03-15T00:33:03.137Z,7.35
2019-03-15T00:35:29.844Z,7.32
2019-03-15T00:37:56.676Z,7.38
2019-03-15T00:40:23.496Z,7.38
2019-03-15T00:42:50.244Z,7.37
2019-03-15T00:45:16.959Z,7.39
2019-03-15T00:47:43.656Z,7.35
2019-03-15T00:50:10.928Z,7.32
2019-03-15T00:52:37.639Z,7.32
2019-03-15T00:55:04.693Z,7.25
2019-03-15T00:57:31.422Z,7.40
2019-03-15T00:59:58.144Z,7.40
2019-03-15T01:02:26.056Z,7.35
2019-03-15T01:04:52.769Z,7.35
2019-03-15T01:07:19.477Z,7.38
2019-03-15T01:09:46.698Z,7.44
2019-03-15T01:12:13.425Z,7.50
2019-03-15T01:14:40.176Z,7.43
2019-03-15T01:17:06.876Z,7.54
2019-03-15T01:19:33.611Z,7.54
2019-03-15T01:22:00.314Z,7.57
2019-03-15T01:24:27.034Z,7.60
2019-03-15T01:26:53.745Z,7.63
2019-03-15T01:29:20.491Z,7.64
2019-03-15T01:31:47.183Z,7.61
2019-03-15T01:34:14.896Z,7.57
2019-03-15T01:36:41.946Z,7.55
2019-03-15T01:39:08.696Z,7.61
2019-03-15T01:41:35.351Z,7.63
2019-03-15T01:44:02.058Z,7.52
2019-03-15T01:46:30.195Z,7.50
2019-03-15T01:48:56.883Z,7.55
2019-03-15T01:51:23.573Z,7.61
2019-03-15T01:53:50.266Z,7.58
2019-03-15T01:56:16.992Z,7.60
2019-03-15T01:58:43.726Z,7.68
2019-03-15T02:01:10.902Z,7.69
2019-03-15T02:03:37.622Z,7.64
2019-03-15T02:06:07.083Z,7.63
2019-03-15T02:08:33.779Z,7.59
2019-03-15T02:11:00.518Z,7.63
2019-03-15T02:13:27.572Z,7.63
2019-03-15T02:15:54.290Z,7.68
2019-03-15T02:18:20.990Z,7.75
2019-03-15T02:20:48.099Z,7.87
2019-03-15T02:23:14.794Z,7.87
2019-03-15T02:25:41.537Z,7.87
2019-03-15T02:28:08.247Z,7.82
2019-03-15T02:30:35.248Z,7.86
2019-03-15T02:33:01.936Z,7.91
2019-03-15T02:35:29.049Z,7.86
2019-03-15T02:37:55.795Z,7.93
2019-03-15T02:40:22.552Z,8.01
2019-03-15T02:42:49.351Z,8.03
2019-03-15T02:45:16.101Z,8.03
2019-03-15T02:47:42.841Z,8.03
2019-03-15T02:50:09.575Z,8.10
2019-03-15T02:52:36.272Z,8.08
2019-03-15T02:55:03.324Z,8.11
2019-03-15T02:57:30.429Z,8.12
2019-03-15T02:59:57.491Z,8.14
2019-03-15T03:02:24.204Z,8.12
2019-03-15T03:04:50.919Z,8.14
2019-03-15T03:07:21.382Z,8.18
2019-03-15T03:09:48.111Z,8.18
2019-03-15T03:12:14.836Z,8.20
2019-03-15T03:14:41.549Z,8.23
2019-03-15T03:17:08.395Z,8.26
2019-03-15T03:19:35.139Z,8.29
2019-03-15T03:22:01.872Z,8.28
2019-03-15T03:24:28.887Z,8.31
2019-03-15T03:26:55.614Z,8.36
2019-03-15T03:29:22.321Z,8.30
2019-03-15T03:31:49.039Z,8.29
2019-03-15T03:34:15.847Z,8.34
2019-03-15T03:36:42.592Z,8.36
2019-03-15T03:39:09.309Z,8.37
2019-03-15T03:41:36.030Z,8.36
2019-03-15T03:44:02.805Z,8.44
2019-03-15T03:46:29.546Z,8.48
2019-03-15T03:48:56.224Z,8.44
2019-03-15T03:51:22.953Z,8.46
2019-03-15T03:53:49.686Z,8.42
2019-03-15T03:56:17.447Z,8.46
2019-03-15T03:58:46.227Z,8.45
2019-03-15T04:01:13.260Z,8.50
2019-03-15T04:03:40.032Z,8.55
2019-03-15T04:06:06.779Z,8.50
2019-03-15T04:08:33.521Z,8.53
2019-03-15T04:11:03.945Z,8.54
2019-03-15T04:13:31.016Z,8.54
2019-03-15T04:15:57.727Z,8.58
2019-03-15T04:18:24.911Z,8.64
2019-03-15T04:20:51.624Z,8.66
2019-03-15T04:23:18.342Z,8.58
2019-03-15T04:25:45.068Z,8.60
2019-03-15T04:28:12.118Z,8.61
2019-03-15T04:30:38.828Z,8.66
2019-03-15T04:33:05.513Z,8.66
2019-03-15T04:35:32.233Z,8.69
2019-03-15T04:37:58.963Z,8.68
2019-03-15T04:40:25.659Z,8.69
2019-03-15T04:42:52.479Z,8.77
2019-03-15T04:45:19.275Z,8.77
2019-03-15T04:47:48.713Z,8.78
2019-03-15T04:50:15.430Z,8.74
2019-03-15T04:52:42.176Z,8.82
2019-03-15T04:55:08.861Z,8.87
2019-03-15T04:57:35.610Z,8.82
2019-03-15T05:00:03.376Z,4.98
2019-03-15T05:02:30.105Z,8.79
2019-03-15T05:05:00.103Z,8.80
2019-03-15T05:07:25.803Z,8.76
2019-03-15T05:09:52.527Z,8.75
2019-03-15T05:12:19.281Z,8.74
2019-03-15T05:14:46.120Z,8.73
2019-03-15T05:17:12.847Z,8.72
2019-03-15T05:19:39.647Z,8.75
2019-03-15T05:22:06.279Z,8.70
2019-03-15T05:24:37.799Z,8.73
2019-03-15T05:27:04.489Z,8.69
2019-03-15T05:29:31.173Z,8.74
2019-03-15T05:31:57.913Z,8.76
2019-03-15T05:34:24.615Z,8.73
2019-03-15T05:36:51.360Z,8.73
2019-03-15T05:39:18.070Z,8.73
2019-03-15T05:41:44.904Z,8.68
2019-03-15T05:44:11.609Z,8.69
2019-03-15T05:46:38.663Z,8.70
2019-03-15T05:49:05.361Z,8.69
2019-03-15T05:51:32.113Z,8.74
2019-03-15T05:53:58.797Z,8.75
2019-03-15T05:56:28.151Z,8.73
2019-03-15T05:58:54.715Z,8.75
2019-03-15T06:01:21.437Z,8.68
2019-03-15T06:03:49.378Z,8.74
2019-03-15T06:06:16.353Z,8.79
2019-03-15T06:08:43.097Z,8.73
2019-03-15T06:11:10.165Z,8.73
2019-03-15T06:13:37.203Z,8.69
2019-03-15T06:16:04.134Z,8.69
2019-03-15T06:18:30.976Z,8.69
2019-03-15T06:20:57.689Z,8.70
2019-03-15T06:23:24.553Z,8.69
2019-03-15T06:25:51.281Z,8.73
2019-03-15T06:28:18.147Z,8.80
2019-03-15T06:30:45.193Z,8.79
2019-03-15T06:33:11.985Z,8.78
2019-03-15T06:35:38.747Z,8.83
2019-03-15T06:38:06.712Z,8.78
2019-03-15T06:40:33.439Z,8.81
2019-03-15T06:43:00.213Z,8.84
2019-03-15T06:45:27.104Z,8.82
2019-03-15T06:47:53.848Z,8.83
2019-03-15T06:50:20.541Z,8.80
2019-03-15T06:52:47.306Z,8.86
2019-03-15T06:55:14.071Z,8.81
2019-03-15T06:57:41.003Z,8.83
2019-03-15T07:00:07.938Z,8.85
2019-03-15T07:02:34.866Z,8.88
2019-03-15T07:05:01.872Z,8.91
2019-03-15T07:07:28.654Z,9.01
2019-03-15T07:09:55.423Z,8.96
2019-03-15T07:12:22.234Z,8.97
2019-03-15T07:14:49.486Z,8.94
2019-03-15T07:17:16.314Z,8.99
2019-03-15T07:19:43.159Z,9.04
2019-03-15T07:22:09.978Z,9.05
2019-03-15T07:24:36.747Z,9.06
2019-03-15T07:27:12.935Z,9.05
2019-03-15T07:29:32.433Z,9.03
2019-03-15T07:31:59.615Z,9.01
2019-03-15T07:34:26.465Z,9.00
2019-03-15T07:36:55.380Z,9.04
2019-03-15T07:39:21.960Z,9.04
2019-03-15T07:41:48.860Z,9.08
2019-03-15T07:44:15.763Z,9.07
2019-03-15T07:46:43.494Z,9.12
2019-03-15T07:49:10.370Z,9.13
2019-03-15T07:51:37.304Z,9.09
2019-03-15T07:54:04.067Z,9.14
2019-03-15T07:56:30.811Z,9.05
2019-03-15T07:58:57.973Z,9.13
2019-03-15T08:01:25.019Z,9.12
2019-03-15T08:03:53.654Z,9.16
2019-03-15T08:06:33.835Z,9.16
2019-03-15T08:08:49.135Z,9.18
2019-03-15T08:11:16.004Z,9.18
2019-03-15T08:13:43.944Z,9.24
2019-03-15T08:16:10.678Z,9.24
2019-03-15T08:18:37.598Z,9.28
2019-03-15T08:21:04.440Z,9.31
2019-03-15T08:23:31.348Z,9.41
2019-03-15T08:25:58.239Z,9.43
2019-03-15T08:28:25.602Z,9.49
2019-03-15T08:30:52.510Z,9.51
2019-03-15T08:33:19.477Z,9.54
2019-03-15T08:35:46.414Z,9.53
2019-03-15T08:38:13.214Z,9.55
2019-03-15T08:40:42.864Z,9.68
2019-03-15T08:43:09.638Z,9.65
2019-03-15T08:45:36.415Z,9.69
2019-03-15T08:48:03.265Z,9.72
2019-03-15T08:50:30.658Z,9.77
2019-03-15T08:52:57.432Z,9.84
2019-03-15T08:55:24.381Z,9.89
2019-03-15T08:57:55.117Z,9.89
2019-03-15T09:00:22.245Z,9.94
2019-03-15T09:02:48.992Z,10.00
2019-03-15T09:05:15.933Z,10.06
2019-03-15T09:07:46.484Z,10.06
2019-03-15T09:10:22.813Z,10.06
2019-03-15T09:12:42.888Z,10.10
2019-03-15T09:15:17.060Z,10.13
2019-03-15T09:17:46.184Z,10.12
2019-03-15T09:20:15.910Z,10.14
2019-03-15T09:22:43.008Z,10.22
2019-03-15T09:25:19.127Z,10.33
2019-03-15T09:27:45.030Z,10.37
2019-03-15T09:30:22.503Z,10.41
2019-03-15T09:32:42.227Z,10.43
2019-03-15T09:35:11.182Z,10.47
2019-03-15T09:37:38.226Z,10.54
2019-03-15T09:40:06.582Z,10.62
2019-03-15T09:42:34.738Z,10.66
2019-03-15T09:45:04.014Z,10.71
2019-03-15T09:47:30.811Z,10.72
2019-03-15T09:49:57.744Z,10.79
2019-03-15T09:52:28.567Z,10.83
2019-03-15T09:54:55.677Z,10.83
2019-03-15T09:57:22.591Z,10.84
2019-03-15T09:59:49.472Z,10.89
2019-03-15T10:02:29.267Z,10.92
2019-03-15T10:04:46.482Z,10.98
2019-03-15T10:07:13.548Z,10.94
2019-03-15T10:09:45.757Z,11.03
2019-03-15T10:12:09.870Z,11.03
2019-03-15T10:14:36.636Z,11.06
2019-03-15T10:17:05.316Z,11.07
2019-03-15T10:19:32.432Z,11.15
2019-03-15T10:22:01.866Z,11.21
2019-03-15T10:24:28.612Z,11.25
2019-03-15T10:26:55.891Z,11.31
2019-03-15T10:29:24.667Z,11.31
2019-03-15T10:31:51.421Z,11.38
2019-03-15T10:34:18.920Z,11.39
2019-03-15T10:36:46.062Z,11.44
2019-03-15T10:39:16.102Z,11.47
2019-03-15T10:41:42.894Z,11.53
2019-03-15T10:44:10.068Z,11.56
2019-03-15T10:46:36.865Z,11.62
2019-03-15T10:49:03.600Z,11.65
2019-03-15T10:51:30.601Z,11.69
2019-03-15T10:53:58.746Z,11.70
2019-03-15T10:56:25.521Z,11.73
2019-03-15T10:58:52.412Z,11.74
2019-03-15T11:01:19.188Z,11.72
2019-03-15T11:03:46.999Z,11.72
2019-03-15T11:06:14.158Z,11.71
2019-03-15T11:08:44.834Z,11.73
2019-03-15T11:11:11.584Z,11.73
2019-03-15T11:13:38.655Z,11.73
2019-03-15T11:16:05.655Z,11.75
2019-03-15T11:18:36.785Z,11.74
2019-03-15T11:21:04.303Z,11.74
2019-03-15T11:23:31.423Z,11.76
2019-03-15T11:25:58.981Z,11.80
2019-03-15T11:28:28.585Z,11.80
2019-03-15T11:30:55.409Z,11.78
2019-03-15T11:33:22.126Z,11.86
2019-03-15T11:35:48.878Z,11.86
2019-03-15T11:38:18.776Z,11.86
2019-03-15T11:40:52.078Z,11.91
2019-03-15T11:43:25.510Z,11.90
2019-03-15T11:45:54.153Z,11.93
2019-03-15T11:48:21.359Z,11.97
2019-03-15T11:50:50.326Z,11.97
2019-03-15T11:53:18.942Z,12.02
2019-03-15T11:55:48.459Z,12.04
2019-03-15T11:58:15.244Z,12.05
2019-03-15T12:00:41.981Z,12.04
2019-03-15T12:03:08.789Z,12.03
2019-03-15T12:05:35.639Z,12.04
2019-03-15T12:08:03.733Z,12.04
2019-03-15T12:10:32.228Z,12.10
2019-03-15T12:12:59.065Z,12.09
2019-03-15T12:15:27.307Z,12.11
2019-03-15T12:17:54.262Z,12.08
2019-03-15T12:20:23.508Z,12.03
2019-03-15T12:22:50.256Z,12.09
2019-03-15T12:25:17.086Z,12.06
2019-03-15T12:27:43.846Z,11.98
2019-03-15T12:30:10.819Z,12.03
2019-03-15T12:32:39.494Z,12.15
2019-03-15T12:35:08.207Z,12.19
2019-03-15T12:37:34.913Z,12.19
2019-03-15T12:40:02.151Z,12.25
2019-03-15T12:42:29.054Z,12.30
2019-03-15T12:44:56.230Z,12.35
2019-03-15T12:47:22.984Z,12.41
2019-03-15T12:49:49.912Z,12.36
2019-03-15T12:52:20.357Z,12.35
2019-03-15T12:54:46.183Z,12.37
2019-03-15T12:57:13.186Z,12.35
2019-03-15T12:59:40.494Z,12.25
2019-03-15T13:02:07.278Z,12.23
2019-03-15T13:04:36.606Z,12.27
2019-03-15T13:07:03.494Z,12.19
2019-03-15T13:09:30.336Z,12.18
2019-03-15T13:11:57.301Z,12.17
2019-03-15T13:14:24.050Z,12.16
2019-03-15T13:16:53.865Z,12.24
2019-03-15T13:19:21.138Z,12.32
2019-03-15T13:21:48.489Z,12.31
2019-03-15T13:24:15.221Z,12.33
2019-03-15T13:26:42.052Z,12.35
2019-03-15T13:29:12.308Z,12.42
2019-03-15T13:31:39.102Z,12.35
2019-03-15T13:34:07.265Z,12.25
2019-03-15T13:36:34.288Z,12.25
2019-03-15T13:39:07.895Z,12.31
2019-03-15T13:41:34.741Z,12.30
2019-03-15T13:44:05.405Z,12.25
2019-03-15T13:46:36.431Z,12.28
2019-03-15T13:49:03.304Z,12.27
2019-03-15T13:51:31.468Z,11.84
2019-03-15T13:53:58.446Z,12.11
2019-03-15T13:56:25.223Z,12.12
2019-03-15T13:58:57.580Z,12.14
2019-03-15T14:01:24.746Z,12.14
2019-03-15T14:03:51.478Z,12.15
2019-03-15T14:06:20.607Z,12.17
2019-03-15T14:08:47.506Z,12.22
2019-03-15T14:11:14.295Z,12.18
2019-03-15T14:13:41.587Z,12.25
2019-03-15T14:16:08.494Z,12.26
2019-03-15T14:18:35.453Z,12.29
2019-03-15T14:21:02.309Z,12.34
2019-03-15T14:23:29.385Z,12.34
2019-03-15T14:26:00.472Z,12.35
2019-03-15T14:28:27.419Z,12.41
2019-03-15T14:30:57.816Z,12.41
2019-03-15T14:33:24.767Z,12.46
2019-03-15T14:35:51.565Z,12.47
2019-03-15T14:38:23.903Z,12.48
2019-03-15T14:40:51.278Z,12.52
2019-03-15T14:43:18.820Z,12.50
2019-03-15T14:45:45.668Z,12.47
2019-03-15T14:48:12.823Z,12.47
2019-03-15T14:50:44.102Z,12.47
2019-03-15T14:53:16.113Z,12.45
2019-03-15T14:55:43.437Z,12.40
2019-03-15T14:58:10.282Z,12.35
2019-03-15T15:00:37.058Z,12.39
2019-03-15T15:03:14.124Z,12.35
2019-03-15T15:05:42.051Z,12.33
2019-03-15T15:08:14.122Z,12.29
2019-03-15T15:10:43.483Z,12.37
2019-03-15T15:13:10.691Z,12.31
2019-03-15T15:15:37.632Z,12.22
2019-03-15T15:18:15.073Z,12.20
2019-03-15T15:20:41.819Z,12.10
2019-03-15T15:23:10.146Z,12.08
2019-03-15T15:25:40.258Z,12.08
2019-03-15T15:28:06.987Z,12.12
2019-03-15T15:30:33.727Z,12.13
2019-03-15T15:33:00.617Z,12.12
2019-03-15T15:35:27.390Z,12.14
2019-03-15T15:37:54.311Z,12.18
2019-03-15T15:40:21.369Z,12.28
2019-03-15T15:42:48.145Z,12.31
2019-03-15T15:45:17.857Z,12.31
2019-03-15T15:47:44.708Z,12.32
2019-03-15T15:50:12.884Z,12.34
2019-03-15T15:52:40.374Z,12.35
2019-03-15T15:55:07.464Z,12.39
2019-03-15T15:57:34.206Z,12.39
2019-03-15T16:00:01.208Z,12.39
2019-03-15T16:02:29.961Z,12.40
2019-03-15T16:04:56.773Z,12.44
2019-03-15T16:07:26.213Z,12.38
2019-03-15T16:09:53.175Z,12.43
2019-03-15T16:12:20.235Z,12.37
2019-03-15T16:14:47.877Z,12.35
2019-03-15T16:17:21.637Z,12.30
2019-03-15T16:19:45.940Z,12.25
2019-03-15T16:22:14.067Z,12.21
2019-03-15T16:24:41.001Z,12.21
2019-03-15T16:27:09.862Z,12.16
2019-03-15T16:29:36.903Z,12.17
2019-03-15T16:32:03.885Z,12.16
2019-03-15T16:34:30.641Z,12.14
2019-03-15T16:36:57.546Z,12.10
2019-03-15T16:39:24.317Z,12.16
2019-03-15T16:41:51.312Z,12.15
2019-03-15T16:44:18.332Z,12.12
2019-03-15T16:46:45.503Z,12.12
2019-03-15T16:49:12.399Z,12.13
2019-03-15T16:51:39.263Z,12.18
2019-03-15T16:54:06.329Z,12.16
2019-03-15T16:56:33.236Z,12.17
2019-03-15T16:59:00.317Z,12.19
2019-03-15T17:01:27.353Z,12.22
2019-03-15T17:03:54.224Z,12.18
2019-03-15T17:06:20.950Z,12.18
2019-03-15T17:08:48.429Z,12.18
2019-03-15T17:11:15.497Z,12.20
2019-03-15T17:13:43.717Z,12.23
2019-03-15T17:16:10.588Z,12.18
2019-03-15T17:18:37.509Z,12.25
2019-03-15T17:21:04.381Z,12.25
2019-03-15T17:23:31.245Z,12.25
2019-03-15T17:25:58.424Z,12.21
2019-03-15T17:28:25.466Z,12.20
2019-03-15T17:30:52.257Z,12.07
2019-03-15T17:33:19.208Z,12.09
2019-03-15T17:35:46.219Z,12.06
2019-03-15T17:38:13.960Z,12.05
2019-03-15T17:40:43.282Z,12.07
2019-03-15T17:43:10.774Z,12.08
2019-03-15T17:45:39.565Z,12.08
2019-03-15T17:48:06.560Z,12.06
2019-03-15T17:50:33.342Z,12.07
2019-03-15T17:53:00.340Z,12.08
2019-03-15T17:55:27.111Z,12.09
2019-03-15T17:57:53.973Z,12.09
2019-03-15T18:00:28.849Z,12.06
2019-03-15T18:02:55.596Z,12.07
2019-03-15T18:05:22.506Z,12.07
2019-03-15T18:07:49.220Z,12.04
2019-03-15T18:10:16.056Z,12.05
2019-03-15T18:12:42.969Z,12.02
2019-03-15T18:15:09.870Z,12.00
2019-03-15T18:17:36.682Z,12.00
2019-03-15T18:20:03.672Z,11.93
2019-03-15T18:22:30.482Z,11.95
2019-03-15T18:24:57.317Z,11.95
2019-03-15T18:27:24.159Z,11.96
2019-03-15T18:29:50.915Z,11.96
2019-03-15T18:32:17.732Z,12.00
2019-03-15T18:34:44.465Z,11.97
2019-03-15T18:37:11.380Z,12.00
2019-03-15T18:39:38.701Z,11.97
2019-03-15T18:42:05.680Z,11.97
2019-03-15T18:44:32.544Z,11.97
2019-03-15T18:46:59.322Z,11.96
2019-03-15T18:49:26.339Z,11.96
2019-03-15T18:51:53.270Z,12.01
2019-03-15T18:54:21.128Z,11.95
2019-03-15T18:56:47.908Z,11.98
2019-03-15T18:59:18.426Z,11.93
2019-03-15T19:01:45.208Z,11.97
2019-03-15T19:04:12.834Z,11.93
2019-03-15T19:06:39.688Z,11.95
2019-03-15T19:09:06.890Z,12.00
2019-03-15T19:11:33.884Z,11.97
2019-03-15T19:14:00.821Z,11.96
2019-03-15T19:16:27.575Z,11.97
2019-03-15T19:18:54.819Z,11.91
2019-03-15T19:21:21.655Z,11.92
2019-03-15T19:23:49.356Z,11.92
2019-03-15T19:26:16.217Z,11.93
2019-03-15T19:28:43.187Z,11.92
2019-03-15T19:31:10.214Z,11.89
2019-03-15T19:33:37.208Z,11.87
2019-03-15T19:36:04.394Z,11.86
2019-03-15T19:38:31.184Z,11.81
2019-03-15T19:40:57.944Z,11.83
2019-03-15T19:43:29.222Z,11.89
2019-03-15T19:45:56.446Z,11.88
2019-03-15T19:48:23.194Z,11.89
2019-03-15T19:50:50.013Z,11.89
2019-03-15T19:53:17.049Z,11.83
2019-03-15T19:55:46.797Z,11.82
2019-03-15T19:58:13.558Z,11.85
2019-03-15T20:00:40.312Z,11.86
2019-03-15T20:03:10.137Z,11.83
2019-03-15T20:05:37.003Z,11.86
2019-03-15T20:08:03.946Z,11.78
2019-03-15T20:10:30.675Z,11.83
2019-03-15T20:12:57.535Z,11.85
2019-03-15T20:15:24.287Z,11.82
2019-03-15T20:17:51.115Z,11.84
2019-03-15T20:20:17.856Z,11.80
2019-03-15T20:22:44.837Z,11.80
2019-03-15T20:25:11.718Z,11.81
2019-03-15T20:27:40.384Z,11.80
2019-03-15T20:30:21.012Z,11.74
2019-03-15T20:32:41.011Z,11.73
2019-03-15T20:35:09.380Z,11.70
2019-03-15T20:37:36.425Z,11.70
2019-03-15T20:40:03.691Z,11.68
2019-03-15T20:42:30.432Z,11.70
2019-03-15T20:44:57.858Z,11.70
2019-03-15T20:47:24.570Z,11.70
2019-03-15T20:49:51.340Z,11.69
2019-03-15T20:52:22.260Z,11.64
2019-03-15T20:54:48.971Z,11.66
2019-03-15T20:57:15.691Z,11.58
2019-03-15T20:59:42.485Z,11.57
2019-03-15T21:02:09.281Z,11.57
2019-03-15T21:04:35.964Z,11.55
2019-03-15T21:07:02.713Z,11.51
2019-03-15T21:09:29.619Z,11.47
2019-03-15T21:11:58.943Z,11.52
2019-03-15T21:14:25.772Z,11.53
2019-03-15T21:16:52.524Z,11.57
2019-03-15T21:19:19.228Z,11.52
2019-03-15T21:21:45.942Z,11.51
2019-03-15T21:24:13.228Z,11.50
2019-03-15T21:26:40.099Z,11.52
2019-03-15T21:29:06.847Z,11.54
2019-03-15T21:31:33.584Z,11.54
2019-03-15T21:34:00.284Z,11.51
2019-03-15T21:36:27.007Z,11.53
2019-03-15T21:38:53.839Z,11.50
2019-03-15T21:41:20.571Z,11.49
2019-03-15T21:43:47.778Z,11.48
2019-03-15T21:46:14.507Z,11.49
2019-03-15T21:48:42.128Z,11.52
2019-03-15T21:51:08.875Z,11.52
2019-03-15T21:53:35.618Z,11.53
2019-03-15T21:56:02.441Z,11.51
2019-03-15T21:58:29.162Z,11.50
2019-03-15T22:01:02.385Z,11.48
2019-03-15T22:03:26.421Z,11.48
2019-03-15T22:05:53.177Z,11.47
2019-03-15T22:08:19.850Z,11.50
2019-03-15T22:10:46.612Z,11.45
2019-03-15T22:13:13.765Z,11.48
2019-03-15T22:15:40.471Z,11.48
2019-03-15T22:18:07.255Z,11.48
2019-03-15T22:20:34.300Z,11.49
2019-03-15T22:23:00.998Z,11.50
2019-03-15T22:25:27.727Z,11.46
2019-03-15T22:27:54.568Z,11.45
2019-03-15T22:30:21.328Z,11.42
2019-03-15T22:32:48.166Z,11.43
2019-03-15T22:35:14.885Z,11.44
2019-03-15T22:37:41.895Z,11.37
2019-03-15T22:40:08.589Z,11.38
2019-03-15T22:42:35.288Z,11.42
2019-03-15T22:45:02.217Z,11.40
2019-03-15T22:47:29.059Z,11.33
2019-03-15T22:49:55.790Z,11.35
2019-03-15T22:52:22.507Z,11.29
2019-03-15T22:54:49.512Z,11.34
2019-03-15T22:57:16.619Z,11.28
2019-03-15T22:59:43.336Z,11.32
2019-03-15T23:02:10.157Z,11.32
2019-03-15T23:04:36.856Z,11.30
2019-03-15T23:07:03.581Z,11.33
2019-03-15T23:09:31.452Z,11.34
2019-03-15T23:11:58.161Z,11.35
2019-03-15T23:14:24.859Z,11.32
2019-03-15T23:16:51.565Z,11.27
2019-03-15T23:19:18.292Z,11.30
2019-03-15T23:21:45.025Z,11.24
2019-03-15T23:24:11.726Z,11.24
2019-03-15T23:26:38.482Z,11.28
2019-03-15T23:29:05.137Z,11.25
2019-03-15T23:31:43.090Z,11.23
2019-03-15T23:34:00.565Z,11.25
2019-03-15T23:36:27.285Z,11.28
2019-03-15T23:38:54.082Z,11.28
2019-03-15T23:41:20.807Z,11.30
2019-03-15T23:43:47.599Z,11.26
2019-03-15T23:46:14.411Z,11.24
2019-03-15T23:48:41.467Z,11.28
2019-03-15T23:51:08.186Z,11.26
2019-03-15T23:53:34.897Z,11.22
2019-03-15T23:56:01.657Z,11.23
2019-03-15T23:58:28.917Z,11.29
